Time;durP1;ratioP1;P1;durP2;ratioP2;P2;SDS_P1;SDS_P2;PMS_P1;PMS_P2;Temp;Humidity;BMP_temperature;BMP_pressure;BME280_temperature;BME280_humidity;BME280_pressure;Samples;Min_cycle;Max_cycle;Signal;HPM_P1;HPM_P2
2022/07/08 00:02:33;;;;;;;9.13;3.35;;;19.70;99.90;;;;;;5020199;28;20233;-78
2022/07/08 00:05:22;;;;;;;10.00;3.55;;;19.70;99.90;;;;;;5024330;28;20226;-78
2022/07/08 00:08:11;;;;;;;8.65;2.75;;;19.80;99.90;;;;;;5007848;28;20222;-78
2022/07/08 00:10:59;;;;;;;10.50;3.30;;;19.80;99.90;;;;;;5025646;28;20228;-78
2022/07/08 00:13:51;;;;;;;8.52;3.72;;;19.80;99.90;;;;;;5019530;28;20237;-76
2022/07/08 00:16:43;;;;;;;8.25;3.38;;;19.90;99.90;;;;;;5007285;28;20225;-77
2022/07/08 00:19:33;;;;;;;7.82;3.05;;;19.90;99.90;;;;;;5018698;28;20622;-79
2022/07/08 00:22:22;;;;;;;5.70;3.10;;;19.90;99.90;;;;;;5024035;28;20252;-78
2022/07/08 00:25:10;;;;;;;6.95;3.30;;;19.90;99.90;;;;;;5013698;28;20585;-79
2022/07/08 00:27:59;;;;;;;5.25;3.35;;;19.80;99.90;;;;;;5020305;28;20561;-78
2022/07/08 00:30:47;;;;;;;6.60;3.40;;;19.90;99.90;;;;;;5015799;28;20229;-77
2022/07/08 00:33:36;;;;;;;6.97;3.40;;;19.90;99.90;;;;;;5024235;28;20233;-77
2022/07/08 00:36:26;;;;;;;8.75;3.42;;;19.90;99.90;;;;;;5021852;28;20221;-77
2022/07/08 00:39:15;;;;;;;5.80;3.55;;;19.90;99.90;;;;;;5020824;28;20243;-77
2022/07/08 00:42:05;;;;;;;6.65;3.42;;;19.80;99.90;;;;;;5018959;28;20254;-77
2022/07/08 00:44:53;;;;;;;6.10;3.28;;;19.90;99.90;;;;;;5011568;28;20220;-76
2022/07/08 00:47:42;;;;;;;9.60;3.67;;;19.90;99.90;;;;;;5025715;28;20291;-76
2022/07/08 00:50:31;;;;;;;6.30;3.20;;;19.90;99.90;;;;;;5021909;28;20269;-75
2022/07/08 00:53:23;;;;;;;6.45;3.35;;;19.90;99.90;;;;;;5015315;28;20217;-78
2022/07/08 00:56:13;;;;;;;5.43;3.20;;;19.90;99.90;;;;;;5018173;28;20237;-77
2022/07/08 00:59:02;;;;;;;5.57;3.00;;;19.90;99.90;;;;;;5008927;28;20240;-77
2022/07/08 01:01:51;;;;;;;5.25;3.25;;;19.80;99.90;;;;;;5004337;28;20264;-77
2022/07/08 01:04:39;;;;;;;5.38;3.22;;;19.70;99.90;;;;;;5017412;28;20619;-77
2022/07/08 01:07:29;;;;;;;4.95;3.15;;;19.60;99.90;;;;;;4997821;28;20304;-77
2022/07/08 01:10:19;;;;;;;8.52;2.90;;;19.50;99.90;;;;;;5014919;28;20221;-77
2022/07/08 01:13:08;;;;;;;5.05;3.00;;;19.60;99.90;;;;;;5015375;28;20214;-75
2022/07/08 01:15:57;;;;;;;7.22;3.15;;;19.60;99.90;;;;;;5005251;28;20240;-77
2022/07/08 01:18:46;;;;;;;7.70;3.30;;;19.60;99.90;;;;;;5020719;28;20312;-78
2022/07/08 01:21:36;;;;;;;6.38;3.00;;;19.60;99.90;;;;;;5018225;28;20223;-77
2022/07/08 01:24:24;;;;;;;5.72;3.10;;;19.70;99.90;;;;;;5019465;28;20557;-76
2022/07/08 01:27:13;;;;;;;4.30;3.00;;;19.60;99.90;;;;;;5020248;28;20312;-77
2022/07/08 01:30:02;;;;;;;5.40;2.88;;;19.60;99.90;;;;;;5014709;28;20591;-76
2022/07/08 01:32:50;;;;;;;10.05;3.10;;;19.70;99.90;;;;;;5017636;28;20301;-77
2022/07/08 01:35:39;;;;;;;5.22;2.78;;;19.70;99.90;;;;;;5021966;28;20229;-77
2022/07/08 01:38:29;;;;;;;7.50;3.05;;;19.60;99.90;;;;;;5026115;28;20217;-77
2022/07/08 01:41:19;;;;;;;9.70;3.22;;;19.60;99.90;;;;;;5016390;28;20252;-77
2022/07/08 01:44:08;;;;;;;6.43;3.50;;;19.60;99.90;;;;;;5005953;28;20225;-77
2022/07/08 01:46:57;;;;;;;5.85;3.42;;;19.60;99.90;;;;;;5014219;28;20217;-77
2022/07/08 01:49:46;;;;;;;5.07;3.00;;;19.70;99.90;;;;;;5006551;28;20329;-75
2022/07/08 01:52:34;;;;;;;11.00;3.08;;;19.60;99.90;;;;;;5004068;28;20589;-76
2022/07/08 01:55:28;;;;;;;4.95;3.22;;;19.60;99.90;;;;;;5000867;28;20217;-76
2022/07/08 01:58:17;;;;;;;5.57;3.30;;;19.60;99.90;;;;;;5014313;28;20237;-77
2022/07/08 02:01:06;;;;;;;7.75;3.30;;;19.60;99.90;;;;;;5011734;28;20260;-76
2022/07/08 02:03:54;;;;;;;5.28;3.22;;;19.70;99.90;;;;;;5016589;28;20713;-77
2022/07/08 02:06:43;;;;;;;10.45;3.30;;;19.60;99.90;;;;;;5021815;28;20218;-76
2022/07/08 02:09:32;;;;;;;4.78;3.15;;;19.60;99.90;;;;;;5018892;28;20222;-78
2022/07/08 02:12:25;;;;;;;4.13;2.60;;;19.60;99.90;;;;;;5021379;28;20225;-78
2022/07/08 02:15:13;;;;;;;5.90;3.05;;;19.60;99.90;;;;;;5007163;28;20232;-78
2022/07/08 02:18:02;;;;;;;6.10;3.00;;;19.60;99.90;;;;;;5023654;28;20730;-76
2022/07/08 02:20:51;;;;;;;6.00;3.00;;;19.60;99.90;;;;;;5015105;28;20231;-76
2022/07/08 02:23:39;;;;;;;6.57;2.97;;;19.60;99.90;;;;;;5005788;28;20221;-77
2022/07/08 02:26:28;;;;;;;4.55;3.00;;;19.60;99.90;;;;;;5023241;28;20221;-79
2022/07/08 02:29:18;;;;;;;4.50;2.80;;;19.60;99.90;;;;;;5007618;28;20230;-77
2022/07/08 02:32:07;;;;;;;5.47;3.38;;;19.60;99.90;;;;;;5007752;28;20233;-77
2022/07/08 02:34:57;;;;;;;5.90;2.65;;;19.60;99.90;;;;;;5016346;28;20228;-75
2022/07/08 02:37:45;;;;;;;4.53;2.90;;;19.60;99.90;;;;;;5020410;28;20217;-76
2022/07/08 02:40:34;;;;;;;9.02;3.45;;;19.60;99.90;;;;;;5021064;28;20237;-76
2022/07/08 02:43:22;;;;;;;6.60;2.88;;;19.60;99.90;;;;;;5020553;28;20226;-76
2022/07/08 02:46:13;;;;;;;5.30;2.88;;;19.60;99.90;;;;;;5021344;28;20221;-76
2022/07/08 02:49:05;;;;;;;5.50;2.83;;;19.60;99.90;;;;;;5010209;28;20229;-76
2022/07/08 02:51:54;;;;;;;9.82;2.92;;;19.60;99.90;;;;;;5010422;28;20595;-75
2022/07/08 02:54:42;;;;;;;5.82;3.38;;;19.60;99.90;;;;;;5010222;28;20217;-76
2022/07/08 02:57:31;;;;;;;4.45;2.92;;;19.60;99.90;;;;;;5023848;28;20225;-76
2022/07/08 03:00:20;;;;;;;6.07;3.45;;;19.60;99.90;;;;;;5019534;28;20221;-80
2022/07/08 03:03:10;;;;;;;7.95;3.20;;;19.60;99.90;;;;;;5020068;28;20241;-80
2022/07/08 03:05:59;;;;;;;4.68;2.97;;;19.60;99.90;;;;;;5023265;28;20310;-79
2022/07/08 03:08:48;;;;;;;6.60;3.20;;;19.60;99.90;;;;;;5023391;28;20217;-80
2022/07/08 03:11:36;;;;;;;12.52;3.55;;;19.60;99.90;;;;;;5007347;28;20699;-78
2022/07/08 03:14:25;;;;;;;7.43;3.75;;;19.60;99.90;;;;;;5022693;28;20213;-78
2022/07/08 03:17:14;;;;;;;9.18;3.40;;;19.60;99.90;;;;;;5007770;28;20218;-78
2022/07/08 03:20:05;;;;;;;6.90;3.50;;;19.60;99.90;;;;;;5010529;28;20712;-77
2022/07/08 03:22:54;;;;;;;5.57;3.42;;;19.60;99.90;;;;;;5004938;28;20237;-78
2022/07/08 03:25:43;;;;;;;4.93;3.70;;;19.50;99.90;;;;;;5019940;28;20226;-77
2022/07/08 03:28:31;;;;;;;10.68;3.60;;;19.50;99.90;;;;;;5023080;28;20225;-77
2022/07/08 03:31:20;;;;;;;7.18;3.60;;;19.60;99.90;;;;;;5008818;28;20561;-77
2022/07/08 03:34:09;;;;;;;5.43;3.47;;;19.60;99.90;;;;;;5022420;28;20276;-78
2022/07/08 03:36:59;;;;;;;6.07;3.20;;;19.60;99.90;;;;;;5016304;28;20395;-78
2022/07/08 03:39:48;;;;;;;5.65;3.50;;;19.60;99.90;;;;;;5008539;28;20217;-78
2022/07/08 03:42:35;;;;;;;11.48;4.00;;;19.70;99.90;;;;;;5023032;28;20241;-77
2022/07/08 03:45:24;;;;;;;7.80;3.78;;;19.70;99.90;;;;;;5003884;28;20226;-77
2022/07/08 03:48:13;;;;;;;4.50;3.42;;;19.70;99.90;;;;;;5027878;28;20672;-77
2022/07/08 03:51:01;;;;;;;7.38;3.38;;;19.70;99.90;;;;;;5017405;28;20252;-77
2022/07/08 03:53:51;;;;;;;8.25;3.75;;;19.70;99.90;;;;;;5024397;28;20232;-76
2022/07/08 03:56:40;;;;;;;7.15;3.38;;;19.70;99.90;;;;;;5009581;28;20661;-77
2022/07/08 03:59:28;;;;;;;12.27;3.42;;;19.80;99.90;;;;;;5019310;28;20572;-77
2022/07/08 04:02:17;;;;;;;10.05;3.83;;;19.90;99.90;;;;;;5018082;28;20226;-77
2022/07/08 04:05:06;;;;;;;7.50;3.40;;;19.80;99.90;;;;;;5005261;28;20229;-76
2022/07/08 04:07:55;;;;;;;7.35;3.00;;;19.80;99.90;;;;;;5012931;28;20241;-76
2022/07/08 04:10:45;;;;;;;5.43;3.03;;;19.70;99.90;;;;;;5014195;28;21357;-76
2022/07/08 04:13:34;;;;;;;5.15;3.08;;;19.70;99.90;;;;;;5014914;28;20229;-77
2022/07/08 04:16:23;;;;;;;10.40;3.63;;;19.70;99.90;;;;;;4997750;28;20249;-77
2022/07/08 04:19:11;;;;;;;10.68;3.47;;;19.80;99.90;;;;;;5023256;28;20608;-77
2022/07/08 04:22:00;;;;;;;11.82;3.80;;;19.80;99.90;;;;;;5020695;28;20217;-76
2022/07/08 04:24:48;;;;;;;5.55;3.00;;;19.80;99.90;;;;;;5022374;28;20234;-78
2022/07/08 04:27:38;;;;;;;9.68;3.67;;;19.90;99.90;;;;;;5018427;28;20306;-78
2022/07/08 04:30:27;;;;;;;8.98;3.10;;;19.90;99.90;;;;;;5020101;28;20222;-77
2022/07/08 04:33:15;;;;;;;9.48;3.22;;;19.90;99.90;;;;;;5011804;28;20237;-77
2022/07/08 04:36:05;;;;;;;5.95;3.45;;;20.00;99.90;;;;;;5017291;28;20225;-76
2022/07/08 04:38:53;;;;;;;9.25;3.67;;;20.00;99.90;;;;;;5014516;28;20230;-77
2022/07/08 04:41:42;;;;;;;9.20;3.58;;;20.10;99.90;;;;;;5020700;28;20225;-77
2022/07/08 04:44:32;;;;;;;5.85;3.22;;;20.00;99.90;;;;;;5018711;28;20224;-77
2022/07/08 04:47:20;;;;;;;7.22;3.22;;;20.00;99.90;;;;;;5015933;28;20230;-78
2022/07/08 04:50:09;;;;;;;8.27;3.50;;;20.00;99.90;;;;;;5012983;28;20234;-77
2022/07/08 04:52:58;;;;;;;7.93;3.22;;;20.10;99.90;;;;;;5007102;28;20221;-77
2022/07/08 04:55:46;;;;;;;8.18;3.20;;;20.20;99.90;;;;;;5023432;28;20226;-78
2022/07/08 04:58:35;;;;;;;9.75;4.05;;;20.20;99.90;;;;;;5015425;28;20233;-77
2022/07/08 05:01:25;;;;;;;10.02;3.45;;;20.30;99.90;;;;;;5025057;28;20319;-77
2022/07/08 05:04:13;;;;;;;8.10;3.70;;;20.50;99.90;;;;;;5010910;28;20640;-77
2022/07/08 05:07:02;;;;;;;7.10;2.60;;;20.60;99.90;;;;;;5020313;28;20329;-78
2022/07/08 05:09:50;;;;;;;8.00;3.28;;;20.80;99.90;;;;;;5019012;28;20311;-77
2022/07/08 05:12:39;;;;;;;6.55;2.67;;;20.90;99.90;;;;;;5021039;28;20684;-77
2022/07/08 05:15:28;;;;;;;8.02;2.80;;;21.10;99.90;;;;;;5019571;28;20328;-77
2022/07/08 05:18:18;;;;;;;8.80;3.63;;;21.10;99.90;;;;;;5002355;28;20711;-79
2022/07/08 05:21:06;;;;;;;8.48;3.83;;;21.00;99.90;;;;;;5017682;28;20225;-79
2022/07/08 05:23:55;;;;;;;13.57;3.80;;;20.80;99.90;;;;;;5014957;28;20220;-78
2022/07/08 05:26:44;;;;;;;10.02;4.15;;;20.70;99.90;;;;;;5022073;28;20226;-79
2022/07/08 05:29:32;;;;;;;16.25;4.22;;;20.80;99.90;;;;;;5018048;28;20229;-81
2022/07/08 05:32:21;;;;;;;9.32;4.35;;;20.90;99.90;;;;;;5007472;28;20237;-81
2022/07/08 05:35:11;;;;;;;9.68;4.13;;;21.00;99.90;;;;;;5005306;28;20261;-81
2022/07/08 05:38:00;;;;;;;12.38;3.67;;;21.40;99.90;;;;;;5015479;28;20235;-81
2022/07/08 05:40:48;;;;;;;12.45;3.97;;;21.80;99.90;;;;;;5016847;28;20226;-80
2022/07/08 05:43:37;;;;;;;12.48;4.35;;;21.70;99.90;;;;;;5016697;28;20229;-80
2022/07/08 05:46:26;;;;;;;15.05;4.30;;;21.70;99.90;;;;;;5019105;28;20248;-77
2022/07/08 05:49:15;;;;;;;9.40;3.90;;;21.60;99.90;;;;;;5015341;28;20244;-80
2022/07/08 05:52:05;;;;;;;15.00;4.22;;;21.70;99.90;;;;;;5019459;28;20225;-73
2022/07/08 05:54:54;;;;;;;14.65;4.78;;;21.70;99.90;;;;;;5009309;28;20222;-75
2022/07/08 05:57:42;;;;;;;9.68;4.10;;;21.80;99.90;;;;;;5011465;28;20221;-74
2022/07/08 06:00:31;;;;;;;12.07;3.00;;;21.90;99.90;;;;;;5020196;28;20246;-77
2022/07/08 06:03:19;;;;;;;8.27;3.53;;;22.00;99.90;;;;;;5027102;28;20221;-77
2022/07/08 06:06:08;;;;;;;9.32;3.65;;;22.00;99.90;;;;;;5025838;28;20218;-76
2022/07/08 06:08:58;;;;;;;5.90;3.22;;;21.90;99.90;;;;;;5006011;28;20229;-77
2022/07/08 06:11:46;;;;;;;9.30;2.85;;;21.80;99.90;;;;;;5014995;28;20225;-78
2022/07/08 06:14:35;;;;;;;7.13;2.60;;;21.80;99.90;;;;;;5018871;28;20644;-77
2022/07/08 06:17:23;;;;;;;9.75;3.00;;;21.80;99.90;;;;;;5015367;28;20237;-75
2022/07/08 06:20:14;;;;;;;10.18;2.85;;;21.80;99.90;;;;;;5021788;28;20776;-75
2022/07/08 06:23:08;;;;;;;7.45;2.30;;;21.90;99.90;;;;;;5022561;28;20222;-78
2022/07/08 06:25:58;;;;;;;8.82;2.20;;;22.00;99.90;;;;;;5005554;28;20233;-79
2022/07/08 06:28:47;;;;;;;7.68;1.92;;;22.10;99.90;;;;;;5022322;28;20229;-79
2022/07/08 06:31:39;;;;;;;5.35;2.53;;;22.00;99.90;;;;;;5024111;28;20233;-79
2022/07/08 06:34:28;;;;;;;4.22;1.77;;;22.10;99.90;;;;;;5008725;28;20275;-76
2022/07/08 06:37:17;;;;;;;11.18;3.03;;;22.20;99.90;;;;;;5020475;28;20230;-81
2022/07/08 06:40:07;;;;;;;5.10;1.73;;;22.30;99.90;;;;;;5017731;28;20218;-79
2022/07/08 06:42:57;;;;;;;3.63;1.38;;;22.40;99.90;;;;;;5019692;28;20302;-79
2022/07/08 06:45:46;;;;;;;5.78;2.15;;;22.50;99.90;;;;;;5023564;28;20222;-79
2022/07/08 06:48:35;;;;;;;3.97;1.67;;;22.50;99.90;;;;;;5005905;28;20244;-79
2022/07/08 06:51:23;;;;;;;9.05;2.63;;;22.50;99.90;;;;;;5022469;28;20223;-79
2022/07/08 06:57:18;;;;;;;8.32;2.00;;;22.50;99.90;;;;;;5024966;28;20232;-71
2022/07/08 07:00:09;;;;;;;12.60;2.38;;;22.50;99.90;;;;;;5021794;28;20233;-72
2022/07/08 07:03:08;;;;;;;17.25;2.90;;;22.50;99.90;;;;;;5006202;28;21205;-70
2022/07/08 07:05:57;;;;;;;10.73;2.35;;;22.60;99.90;;;;;;5022148;28;20307;-71
2022/07/08 07:08:46;;;;;;;9.82;2.55;;;22.60;99.90;;;;;;5023007;28;20221;-71
2022/07/08 07:11:35;;;;;;;12.07;3.00;;;22.80;99.90;;;;;;5003425;28;20367;-71
2022/07/08 07:14:24;;;;;;;6.38;2.80;;;22.90;99.90;;;;;;5018323;28;20245;-71
2022/07/08 07:17:22;;;;;;;10.70;3.03;;;22.90;99.90;;;;;;5010373;28;20225;-74
2022/07/08 07:20:15;;;;;;;8.82;3.50;;;22.90;99.90;;;;;;5009988;28;20228;-74
2022/07/08 07:23:03;;;;;;;6.88;3.40;;;23.00;99.90;;;;;;5022191;28;20657;-74
2022/07/08 07:25:52;;;;;;;8.70;3.30;;;23.10;99.90;;;;;;5007348;28;20230;-73
2022/07/08 07:28:40;;;;;;;7.50;3.30;;;23.20;99.90;;;;;;5019461;28;20225;-74
2022/07/08 07:31:29;;;;;;;7.68;3.10;;;23.20;99.90;;;;;;5021479;28;20350;-73
2022/07/08 07:34:19;;;;;;;6.90;2.53;;;23.50;99.90;;;;;;5020131;28;20281;-72
2022/07/08 07:37:08;;;;;;;7.53;2.97;;;23.70;99.90;;;;;;5021828;28;20324;-71
2022/07/08 07:39:56;;;;;;;8.55;3.78;;;24.10;99.90;;;;;;5002060;28;20316;-73
2022/07/08 07:42:45;;;;;;;7.00;4.03;;;24.50;99.90;;;;;;5019197;28;20225;-73
2022/07/08 07:45:34;;;;;;;8.38;3.40;;;24.80;99.90;;;;;;5027190;28;20237;-73
2022/07/08 07:48:22;;;;;;;5.00;3.35;;;25.20;99.90;;;;;;5022065;28;20222;-74
2022/07/08 07:51:16;;;;;;;5.50;3.55;;;25.30;99.90;;;;;;5007698;28;20240;-73
2022/07/08 07:54:04;;;;;;;6.07;3.60;;;25.50;99.90;;;;;;5020325;28;20236;-72
2022/07/08 07:56:53;;;;;;;3.92;3.00;;;26.10;99.90;;;;;;5019525;28;20651;-72
2022/07/08 07:59:42;;;;;;;6.13;3.88;;;26.60;97.70;;;;;;5016114;28;20604;-74
2022/07/08 08:02:30;;;;;;;5.38;3.78;;;27.30;96.50;;;;;;5017424;28;20218;-73
2022/07/08 08:05:19;;;;;;;3.85;3.55;;;27.20;95.60;;;;;;5020106;28;20279;-73
2022/07/08 08:08:10;;;;;;;6.40;3.53;;;26.90;94.60;;;;;;5013898;28;20249;-74
2022/07/08 08:10:59;;;;;;;5.15;3.15;;;27.00;94.90;;;;;;5017357;28;20288;-72
2022/07/08 08:13:48;;;;;;;5.30;3.83;;;27.10;93.60;;;;;;5021656;28;20240;-73
2022/07/08 08:16:36;;;;;;;4.90;3.72;;;26.90;91.80;;;;;;5021187;28;20227;-74
2022/07/08 08:19:25;;;;;;;5.00;4.00;;;26.40;92.40;;;;;;5013153;28;20290;-75
2022/07/08 08:22:14;;;;;;;8.23;4.38;;;26.70;92.50;;;;;;5006487;28;20245;-78
2022/07/08 08:25:04;;;;;;;6.72;4.75;;;27.80;92.80;;;;;;5004994;28;20222;-78
2022/07/08 08:27:53;;;;;;;12.60;4.32;;;27.60;90.70;;;;;;5016053;28;20320;-81
2022/07/08 08:30:42;;;;;;;6.07;4.05;;;27.60;93.50;;;;;;5002540;28;20271;-80
2022/07/08 08:33:31;;;;;;;7.40;4.90;;;27.90;91.70;;;;;;5011551;28;20392;-78
2022/07/08 08:36:19;;;;;;;5.22;4.13;;;27.60;92.90;;;;;;5013511;28;20229;-74
2022/07/08 08:39:08;;;;;;;5.45;4.00;;;27.10;91.90;;;;;;5011774;28;20221;-75
2022/07/08 08:41:59;;;;;;;4.90;4.00;;;26.40;94.40;;;;;;5012282;28;20219;-72
2022/07/08 08:44:52;;;;;;;7.55;3.95;;;25.60;94.40;;;;;;5018828;28;20229;-74
2022/07/08 08:47:41;;;;;;;9.13;4.45;;;25.20;97.20;;;;;;5016696;28;20248;-74
2022/07/08 08:53:45;;;;;;;9.32;4.80;;;24.60;99.90;;;;;;4999101;28;20712;-74
2022/07/08 08:56:35;;;;;;;5.78;4.63;;;24.40;99.90;;;;;;5013447;28;20368;-77
2022/07/08 08:59:25;;;;;;;7.78;5.03;;;24.40;99.90;;;;;;5014850;28;20229;-77
2022/07/08 09:02:14;;;;;;;6.78;4.72;;;25.00;99.80;;;;;;5020913;28;20336;-79
2022/07/08 09:05:07;;;;;;;10.02;5.10;;;26.50;96.00;;;;;;5005628;28;20242;-78
2022/07/08 09:07:57;;;;;;;7.40;3.85;;;28.50;92.90;;;;;;5007953;28;20371;-77
2022/07/08 09:10:45;;;;;;;6.15;3.97;;;28.90;88.50;;;;;;5009601;28;20229;-77
2022/07/08 09:13:34;;;;;;;7.60;3.30;;;27.20;89.10;;;;;;5018457;28;20229;-78
2022/07/08 09:16:31;;;;;;;7.57;3.80;;;26.30;92.50;;;;;;5016111;28;20667;-76
2022/07/08 09:19:19;;;;;;;5.05;3.97;;;25.70;95.00;;;;;;5017862;28;20379;-77
2022/07/08 09:22:09;;;;;;;5.85;3.50;;;25.80;97.20;;;;;;5016360;28;20214;-77
2022/07/08 09:24:57;;;;;;;6.25;3.22;;;27.80;94.50;;;;;;5022043;28;20236;-77
2022/07/08 09:27:46;;;;;;;3.25;2.85;;;28.90;92.10;;;;;;5017090;28;20274;-77
2022/07/08 09:30:35;;;;;;;4.85;2.90;;;27.70;89.50;;;;;;5016883;28;20229;-77
2022/07/08 09:33:26;;;;;;;19.95;5.10;;;26.60;94.00;;;;;;5007071;28;20221;-77
2022/07/08 09:36:15;;;;;;;10.73;4.95;;;25.20;99.90;;;;;;5010667;28;20222;-77
2022/07/08 09:39:07;;;;;;;7.28;4.20;;;23.70;99.90;;;;;;4998990;28;20321;-77
2022/07/08 09:41:55;;;;;;;5.97;3.60;;;22.80;99.90;;;;;;5007366;28;20222;-77
2022/07/08 09:44:50;;;;;;;3.95;3.13;;;22.30;99.90;;;;;;5015436;28;20225;-76
2022/07/08 09:47:38;;;;;;;4.55;3.30;;;22.20;99.90;;;;;;5004458;28;20275;-77
2022/07/08 09:50:34;;;;;;;4.95;3.20;;;22.10;99.90;;;;;;5021123;28;20226;-77
2022/07/08 09:53:46;;;;;;;4.10;3.42;;;22.20;99.90;;;;;;5016486;28;20521;-78
2022/07/08 09:56:35;;;;;;;6.15;4.28;;;22.20;99.90;;;;;;5021447;28;20360;-79
2022/07/08 09:59:23;;;;;;;10.07;5.00;;;22.00;99.90;;;;;;5023647;28;20226;-77
2022/07/08 10:02:14;;;;;;;8.18;4.80;;;22.00;99.90;;;;;;5006328;28;20225;-77
2022/07/08 10:05:03;;;;;;;6.13;4.93;;;21.90;99.90;;;;;;5008626;28;20220;-77
2022/07/08 10:07:53;;;;;;;5.47;4.90;;;21.90;99.90;;;;;;5002957;28;20360;-77
2022/07/08 10:10:43;;;;;;;5.18;4.10;;;22.20;99.90;;;;;;5017170;28;20324;-77
2022/07/08 10:13:33;;;;;;;6.35;4.40;;;22.60;99.90;;;;;;5021780;28;20328;-76
2022/07/08 10:16:22;;;;;;;5.72;3.90;;;22.90;99.90;;;;;;5015963;28;20231;-75
2022/07/08 10:19:14;;;;;;;3.95;3.53;;;23.50;99.90;;;;;;5015777;28;20237;-77
2022/07/08 10:22:05;;;;;;;4.63;3.63;;;27.70;99.90;;;;;;5017256;28;20569;-77
2022/07/08 10:24:55;;;;;;;3.50;2.95;;;29.70;99.90;;;;;;5020213;28;20225;-77
2022/07/08 10:27:44;;;;;;;2.78;2.50;;;32.10;99.90;;;;;;5018978;28;20660;-78
2022/07/08 10:30:49;;;;;;;4.20;2.60;;;29.20;98.60;;;;;;5005513;28;20224;-78
2022/07/08 10:33:45;;;;;;;5.10;3.10;;;27.30;99.90;;;;;;5010903;28;20229;-77
2022/07/08 10:36:45;;;;;;;7.60;3.22;;;25.90;99.90;;;;;;5011433;28;20240;-77
2022/07/08 10:39:41;;;;;;;4.45;3.20;;;24.70;99.90;;;;;;5012577;28;20236;-77
2022/07/08 10:42:31;;;;;;;5.35;3.60;;;24.00;99.90;;;;;;5019109;28;20221;-77
2022/07/08 10:45:19;;;;;;;6.75;3.40;;;23.20;99.90;;;;;;5014454;28;20237;-77
2022/07/08 10:48:08;;;;;;;4.10;3.15;;;22.80;99.90;;;;;;5011286;28;20217;-77
2022/07/08 10:50:57;;;;;;;4.60;2.95;;;22.40;99.90;;;;;;5024369;28;20225;-77
2022/07/08 10:54:05;;;;;;;6.47;3.40;;;22.10;99.90;;;;;;5015511;28;20677;-77
2022/07/08 10:56:56;;;;;;;6.07;3.95;;;22.10;99.90;;;;;;4998387;28;20259;-77
2022/07/08 11:00:07;;;;;;;5.38;3.22;;;21.90;99.90;;;;;;5036722;28;20738;-76
2022/07/08 11:02:59;;;;;;;5.90;3.60;;;21.50;99.90;;;;;;5018793;28;20221;-77
2022/07/08 11:05:56;;;;;;;6.53;4.05;;;21.00;99.90;;;;;;5020898;28;20603;-77
2022/07/08 11:09:02;;;;;;;6.00;4.18;;;20.80;99.90;;;;;;5012025;28;20232;-76
2022/07/08 11:11:51;;;;;;;4.60;4.10;;;20.80;99.90;;;;;;5025708;28;20217;-77
2022/07/08 11:14:43;;;;;;;5.88;4.32;;;21.00;99.90;;;;;;5021581;28;20228;-77
2022/07/08 11:17:35;;;;;;;5.38;4.88;;;20.70;99.90;;;;;;5016710;28;20257;-77
2022/07/08 11:20:24;;;;;;;7.30;5.82;;;20.80;99.90;;;;;;5020062;28;20233;-77
2022/07/08 11:23:15;;;;;;;6.68;5.75;;;20.90;99.90;;;;;;5021906;28;20648;-76
2022/07/08 11:26:03;;;;;;;7.28;6.05;;;20.90;99.90;;;;;;5013949;28;21014;-77
2022/07/08 11:28:52;;;;;;;7.90;5.20;;;21.00;99.90;;;;;;5023137;28;20240;-77
2022/07/08 11:31:40;;;;;;;9.70;5.45;;;20.90;99.90;;;;;;5023164;28;20244;-78
2022/07/08 11:34:31;;;;;;;6.13;5.53;;;20.80;99.90;;;;;;5014217;28;20240;-78
2022/07/08 11:37:20;;;;;;;7.28;5.65;;;20.80;99.90;;;;;;5022244;28;20225;-77
2022/07/08 11:40:10;;;;;;;6.97;5.53;;;20.80;99.90;;;;;;5023515;28;20225;-77
2022/07/08 11:42:59;;;;;;;8.90;6.68;;;20.80;99.90;;;;;;5016924;28;20228;-77
2022/07/08 11:45:47;;;;;;;8.15;6.50;;;20.80;99.90;;;;;;5016584;28;20218;-75
2022/07/08 11:48:37;;;;;;;6.82;5.88;;;21.30;99.90;;;;;;5013393;28;20539;-75
2022/07/08 11:51:33;;;;;;;5.82;5.25;;;21.60;99.90;;;;;;5022760;28;20226;-75
2022/07/08 11:54:25;;;;;;;6.72;5.07;;;21.80;99.90;;;;;;5022024;28;20240;-75
2022/07/08 11:57:14;;;;;;;5.13;4.57;;;22.30;99.90;;;;;;5015087;28;20225;-75
2022/07/08 12:00:04;;;;;;;7.32;5.30;;;22.50;99.90;;;;;;5021088;28;20253;-74
2022/07/08 12:02:58;;;;;;;5.20;4.68;;;22.10;99.90;;;;;;5015340;28;20649;-74
2022/07/08 12:05:48;;;;;;;5.35;4.57;;;22.10;99.90;;;;;;5003079;28;20287;-73
2022/07/08 12:08:47;;;;;;;7.90;5.30;;;22.10;99.90;;;;;;5015115;28;20222;-74
2022/07/08 12:11:40;;;;;;;6.80;5.20;;;22.20;99.90;;;;;;5014273;28;20237;-76
2022/07/08 12:14:33;;;;;;;6.05;5.53;;;22.30;99.90;;;;;;5007408;28;20248;-76
2022/07/08 12:17:29;;;;;;;6.20;5.57;;;22.40;99.90;;;;;;5016685;28;20321;-76
2022/07/08 12:20:31;;;;;;;6.43;5.70;;;22.40;99.90;;;;;;5016807;28;20218;-75
2022/07/08 12:23:20;;;;;;;5.90;5.30;;;22.50;99.90;;;;;;5018971;28;20596;-77
2022/07/08 12:26:12;;;;;;;6.57;4.97;;;22.50;99.90;;;;;;5016615;28;20218;-76
2022/07/08 12:29:12;;;;;;;5.88;5.28;;;22.40;99.90;;;;;;5015059;28;20229;-76
2022/07/08 12:32:01;;;;;;;5.95;5.35;;;22.40;99.90;;;;;;5012766;28;20236;-77
2022/07/08 12:34:52;;;;;;;7.32;4.80;;;22.40;99.90;;;;;;5006469;28;20485;-76
2022/07/08 12:37:41;;;;;;;6.25;4.60;;;22.70;99.90;;;;;;5009714;28;20234;-75
2022/07/08 12:40:37;;;;;;;6.35;3.40;;;24.90;99.90;;;;;;5016089;28;20221;-75
2022/07/08 12:43:33;;;;;;;4.93;3.25;;;27.00;99.90;;;;;;5016115;28;20228;-75
2022/07/08 12:46:21;;;;;;;2.92;2.72;;;29.10;99.90;;;;;;5016743;28;20765;-74
2022/07/08 12:49:10;;;;;;;3.17;2.88;;;30.50;98.20;;;;;;5023680;28;20225;-75
2022/07/08 12:52:00;;;;;;;3.15;2.85;;;30.60;99.90;;;;;;4991433;28;20226;-75
2022/07/08 12:54:48;;;;;;;3.97;2.72;;;30.80;98.90;;;;;;5013589;28;20249;-74
2022/07/08 12:57:37;;;;;;;2.13;1.95;;;29.00;96.40;;;;;;5015432;28;20712;-76
2022/07/08 13:00:28;;;;;;;4.15;2.13;;;27.60;96.30;;;;;;5015299;28;20220;-76
2022/07/08 13:03:16;;;;;;;2.35;2.15;;;26.60;99.90;;;;;;5020180;28;20244;-76
2022/07/08 13:06:06;;;;;;;3.33;2.55;;;25.70;99.90;;;;;;5027059;28;20427;-76
2022/07/08 13:08:54;;;;;;;2.80;2.60;;;25.70;99.90;;;;;;5014492;28;20718;-77
2022/07/08 13:11:44;;;;;;;3.42;3.13;;;25.50;99.90;;;;;;5017366;28;20232;-76
2022/07/08 13:14:32;;;;;;;4.88;3.35;;;25.50;99.90;;;;;;5015971;28;20224;-77
2022/07/08 13:17:28;;;;;;;3.90;3.60;;;25.10;99.90;;;;;;5006616;28;20225;-76
2022/07/08 13:20:17;;;;;;;5.40;3.47;;;25.00;99.90;;;;;;5023249;28;20220;-76
2022/07/08 13:23:05;;;;;;;4.32;3.92;;;24.80;99.90;;;;;;5020134;28;20218;-76
2022/07/08 13:25:54;;;;;;;5.20;4.30;;;24.40;99.90;;;;;;5019501;28;20217;-75
2022/07/08 13:28:42;;;;;;;2.70;2.05;;;24.10;99.90;;;;;;5021911;28;20232;-76
2022/07/08 13:31:31;;;;;;;2.03;1.83;;;23.60;99.90;;;;;;5002352;28;20661;-76
2022/07/08 13:34:22;;;;;;;21.90;4.22;;;22.80;99.90;;;;;;5016795;28;20244;-75
2022/07/08 13:37:10;;;;;;;16.00;3.97;;;22.40;99.90;;;;;;5016480;28;20605;-75
2022/07/08 13:39:59;;;;;;;11.60;3.65;;;21.40;99.90;;;;;;5021423;28;20233;-75
2022/07/08 13:42:48;;;;;;;6.47;2.85;;;20.30;99.90;;;;;;5021469;28;20236;-76
2022/07/08 13:45:37;;;;;;;5.40;2.42;;;19.30;99.90;;;;;;5020032;28;20226;-75
2022/07/08 13:48:26;;;;;;;6.20;2.70;;;18.70;99.90;;;;;;5020003;28;20252;-76
2022/07/08 13:51:16;;;;;;;5.00;2.90;;;18.40;99.90;;;;;;5003094;28;20221;-77
2022/07/08 13:54:04;;;;;;;6.10;3.42;;;18.40;99.90;;;;;;5006543;28;20564;-76
2022/07/08 13:56:53;;;;;;;6.70;4.05;;;18.50;99.90;;;;;;5006085;28;20709;-76
2022/07/08 13:59:41;;;;;;;11.55;5.07;;;18.70;99.90;;;;;;5024469;28;20725;-76
2022/07/08 14:02:30;;;;;;;9.10;4.55;;;18.90;99.90;;;;;;5019958;28;20221;-75
2022/07/08 14:05:19;;;;;;;6.45;4.50;;;18.70;99.90;;;;;;5014035;28;20229;-74
2022/07/08 14:08:08;;;;;;;5.90;4.45;;;18.90;99.90;;;;;;5012071;28;20288;-74
2022/07/08 14:11:20;;;;;;;7.55;4.55;;;18.80;99.90;;;;;;5016454;28;20232;-73
2022/07/08 14:14:09;;;;;;;6.72;4.45;;;18.90;99.90;;;;;;5019684;28;20323;-76
2022/07/08 14:16:58;;;;;;;10.02;4.80;;;19.00;99.90;;;;;;5020928;28;20234;-76
2022/07/08 14:19:47;;;;;;;6.38;4.50;;;19.00;99.90;;;;;;5023736;28;20224;-75
2022/07/08 14:22:35;;;;;;;5.03;4.25;;;18.90;99.90;;;;;;5006375;28;20225;-75
2022/07/08 14:25:26;;;;;;;7.50;4.18;;;18.90;99.90;;;;;;5022766;28;20731;-76
2022/07/08 14:28:14;;;;;;;6.00;4.50;;;18.90;99.90;;;;;;5022141;28;20222;-76
2022/07/08 14:31:05;;;;;;;6.38;5.00;;;18.80;99.90;;;;;;5002566;28;20213;-76
2022/07/08 14:33:56;;;;;;;6.28;4.30;;;18.90;99.90;;;;;;5024635;28;20210;-77
2022/07/08 14:36:45;;;;;;;9.45;5.68;;;18.80;99.90;;;;;;5019798;28;20221;-77
2022/07/08 14:39:34;;;;;;;7.00;4.80;;;18.90;99.90;;;;;;5012686;28;20229;-76
2022/07/08 14:42:24;;;;;;;5.93;4.50;;;19.00;99.90;;;;;;5022180;28;20229;-77
2022/07/08 14:45:12;;;;;;;5.82;3.95;;;19.00;99.90;;;;;;5021669;28;20240;-76
2022/07/08 14:48:04;;;;;;;6.03;3.85;;;19.10;99.90;;;;;;5017238;28;20256;-76
2022/07/08 14:50:53;;;;;;;6.35;3.50;;;19.20;99.90;;;;;;5017783;28;20245;-76